This is the latest recevied weather packets stored in our database for station/object OE6PLD-13. If no packets are shown the sender has not sent any weather packets the latest 10 day(s).
| Time | Temp. | Humidity | Pressure | Rain* | Wind** | Luminosity | Snow |
|---|---|---|---|---|---|---|---|
| 1778147249 | 19.44° C | 64% | 1017.1 hPa | 0.76 mm | - | 288 W/m² | - |
| 1778147066 | 20° C | 63% | 1016.9 hPa | 0.76 mm | - | 295 W/m² | - |
| 1778146882 | 20° C | 63% | 1017.1 hPa | 0.76 mm | - | 504 W/m² | - |
| 1778146699 | 20° C | 63% | 1017.2 hPa | 0.76 mm | - | 360 W/m² | - |
| 1778146516 | 19.44° C | 65% | 1017 hPa | 0.76 mm | - | 659 W/m² | - |
| 1778146332 | 19.44° C | 65% | 1017.3 hPa | 0.76 mm | - | 471 W/m² | - |
| 1778146149 | 18.89° C | 67% | 1017 hPa | 0.76 mm | - | 415 W/m² | - |
| 1778145965 | 20° C | 65% | 1017.1 hPa | 0.76 mm | - | 309 W/m² | - |
| 1778145782 | 20° C | 63% | 1017 hPa | 0.76 mm | - | 445 W/m² | - |
| 1778145599 | 20° C | 64% | 1017 hPa | 0.76 mm | - | 602 W/m² | - |
| 1778145415 | 20° C | 64% | 1017.2 hPa | 0.76 mm | - | 588 W/m² | - |
| 1778145232 | 19.44° C | 65% | 1017.2 hPa | 0.76 mm | - | 604 W/m² | - |
| 1778145049 | 19.44° C | 65% | 1017.1 hPa | 0.76 mm | - | 619 W/m² | - |
| 1778144865 | 19.44° C | 65% | 1016.9 hPa | 0.76 mm | - | 652 W/m² | - |
| 1778144682 | 18.89° C | 66% | 1017 hPa | 0.76 mm | - | 622 W/m² | - |
| 1778144499 | 18.89° C | 68% | 1017.1 hPa | 0.76 mm | - | 383 W/m² | - |
| 1778144315 | 18.33° C | 69% | 1017 hPa | 0.76 mm | - | 410 W/m² | - |
| 1778144132 | 17.78° C | 69% | 1017 hPa | 0.76 mm | - | 261 W/m² | - |
| 1778143949 | 18.33° C | 68% | 1017 hPa | 0.76 mm | - | 331 W/m² | - |
| 1778143765 | 18.33° C | 68% | 1017 hPa | 0.76 mm | - | 232 W/m² | - |
| 1778143582 | 18.89° C | 67% | 1016.9 hPa | 0.76 mm | - | 246 W/m² | - |
| 1778143399 | 18.89° C | 67% | 1016.8 hPa | 0.76 mm | - | 275 W/m² | - |
| 1778143215 | 18.89° C | 68% | 1016.9 hPa | 0.76 mm | - | 305 W/m² | - |
| 1778143032 | 18.33° C | 71% | 1016.8 hPa | 0.76 mm | - | 398 W/m² | - |
| 1778142848 | 17.78° C | 70% | 1016.9 hPa | 0.76 mm | - | 472 W/m² | - |
* Rain latest hour (hover to see other rain measurements)
** Current wind speed in m/s (hover to see current wind gust speed)